Time;durP1;ratioP1;P1;durP2;ratioP2;P2;SDS_P1;SDS_P2;PMS_P1;PMS_P2;Temp;Humidity;BMP_temperature;BMP_pressure;BME280_temperature;BME280_humidity;BME280_pressure;Samples;Min_cycle;Max_cycle;Signal;HPM_P1;HPM_P2
2022/10/07 00:00:52;;;;;;;;;;;;;;;12.86;100.00;100759.80;1740244;82;21062;-66
2022/10/07 00:03:19;;;;;;;10.20;5.92;;;;;;;12.83;100.00;100758.97;1729866;81;20311;-66
2022/10/07 00:05:46;;;;;;;8.90;5.45;;;;;;;12.74;100.00;100761.91;1735665;82;21836;-65
2022/10/07 00:08:12;;;;;;;8.00;5.37;;;;;;;12.70;100.00;100764.88;1717521;82;21157;-66
2022/10/07 00:10:40;;;;;;;6.28;5.25;;;;;;;12.63;100.00;100758.81;1729375;82;22138;-66
2022/10/07 00:13:07;;;;;;;10.45;5.45;;;;;;;12.62;100.00;100762.08;1709601;82;21003;-65
2022/10/07 00:15:35;;;;;;;8.43;5.47;;;;;;;12.63;100.00;100763.73;1716705;82;21112;-66
2022/10/07 00:18:03;;;;;;;7.37;5.00;;;;;;;12.64;100.00;100764.57;1716008;82;20972;-66
2022/10/07 00:20:29;;;;;;;9.78;5.80;;;;;;;12.63;100.00;100761.55;1732494;82;21010;-65
2022/10/07 00:22:56;;;;;;;8.98;5.60;;;;;;;12.63;100.00;100763.73;1731984;82;21035;-65
2022/10/07 00:25:23;;;;;;;8.68;5.45;;;;;;;12.64;100.00;100774.12;1709326;82;21106;-66
2022/10/07 00:27:49;;;;;;;9.83;5.40;;;;;;;12.65;100.00;100777.12;1721337;82;21118;-66
2022/10/07 00:30:16;;;;;;;10.30;5.80;;;;;;;12.61;100.00;100765.89;1669814;85;21172;-65
2022/10/07 00:32:42;;;;;;;;;;;;;;;12.58;100.00;100773.78;1720627;82;20987;-66
2022/10/07 00:35:09;;;;;;;7.57;5.10;;;;;;;12.57;100.00;100773.52;1709379;82;20562;-66
2022/10/07 00:37:41;;;;;;;6.95;5.03;;;;;;;12.55;100.00;100772.41;1730297;82;21280;-65
2022/10/07 00:40:08;;;;;;;9.03;5.20;;;;;;;12.56;100.00;100767.77;1726716;81;21118;-66
2022/10/07 00:42:34;;;;;;;6.30;5.08;;;;;;;12.57;100.00;100773.52;1709165;82;21522;-66
2022/10/07 00:45:00;;;;;;;11.88;5.08;;;;;;;12.56;100.00;100784.98;1711137;82;21083;-67
2022/10/07 00:47:33;;;;;;;8.05;5.15;;;;;;;12.54;100.00;100783.03;1729197;81;21059;-66
2022/10/07 00:50:14;;;;;;;6.95;5.05;;;;;;;12.49;100.00;100783.00;1647292;86;21618;-66
2022/10/07 00:52:45;;;;;;;9.40;5.12;;;;;;;12.45;100.00;100796.35;1708605;82;21526;-66
2022/10/07 00:55:15;;;;;;;7.80;4.90;;;;;;;12.45;100.00;100790.06;1722619;82;21144;-67
2022/10/07 00:57:42;;;;;;;8.40;5.20;;;;;;;12.45;100.00;100796.35;1736786;80;21555;-70
2022/10/07 01:00:11;;;;;;;8.50;5.00;;;;;;;12.47;100.00;100796.08;1728602;82;21103;-69
2022/10/07 01:02:39;;;;;;;11.57;5.33;;;;;;;12.47;100.00;100803.73;1727829;82;21590;-70
2022/10/07 01:05:08;;;;;;;7.10;5.20;;;;;;;12.47;100.00;100805.64;1715854;82;21051;-70
2022/10/07 01:07:35;;;;;;;7.72;4.92;;;;;;;12.44;100.00;100807.52;1743757;82;21043;-70
2022/10/07 01:10:03;;;;;;;8.95;5.33;;;;;;;12.37;100.00;100806.37;1742861;82;21095;-69
2022/10/07 01:12:51;;;;;;;6.35;5.00;;;;;;;12.34;100.00;100813.72;1736251;82;21078;-70
2022/10/07 01:15:34;;;;;;;8.73;4.47;;;;;;;12.37;100.00;100811.00;1726313;82;21020;-70
2022/10/07 01:18:24;;;;;;;8.28;5.08;;;;;;;12.36;100.00;100810.74;1732221;82;20992;-70
2022/10/07 01:21:11;;;;;;;6.58;4.92;;;;;;;12.37;100.00;100813.20;1723284;82;21129;-70
2022/10/07 01:24:07;;;;;;;7.12;5.35;;;;;;;12.36;100.00;100809.38;1715193;82;21602;-70
2022/10/07 01:26:57;;;;;;;8.53;5.15;;;;;;;12.33;100.00;100818.88;1730375;82;21082;-69
2022/10/07 01:29:44;;;;;;;8.93;4.72;;;;;;;12.24;100.00;100816.34;1714535;82;21066;-70
2022/10/07 01:32:17;;;;;;;9.70;4.97;;;;;;;12.23;100.00;100824.77;1716487;82;21110;-69
2022/10/07 01:34:43;;;;;;;9.75;4.70;;;;;;;12.27;100.00;100823.19;1717795;82;21437;-70
2022/10/07 01:37:14;;;;;;;10.68;5.05;;;;;;;12.32;100.00;100828.18;1723903;82;21576;-70
2022/10/07 01:39:50;;;;;;;7.60;4.72;;;;;;;12.37;100.00;100830.11;1712887;82;21578;-69
2022/10/07 01:42:17;;;;;;;8.78;4.58;;;;;;;12.42;100.00;100827.45;1720533;81;21514;-68
2022/10/07 01:44:44;;;;;;;7.67;4.70;;;;;;;12.45;100.00;100833.76;1722219;82;21114;-69
2022/10/07 01:47:11;;;;;;;9.65;5.00;;;;;;;12.50;100.00;100833.00;1739289;82;21043;-66
2022/10/07 01:49:37;;;;;;;9.38;5.03;;;;;;;12.53;100.00;100833.30;1713663;82;21333;-66
2022/10/07 01:52:23;;;;;;;8.28;4.83;;;;;;;12.57;100.00;100830.88;1716577;82;21098;-65
2022/10/07 01:55:27;;;;;;;6.90;4.42;;;;;;;12.55;100.00;100834.39;1716720;82;21146;-66
2022/10/07 01:58:11;;;;;;;11.68;4.58;;;;;;;12.55;100.00;100835.76;1730371;82;21000;-66
2022/10/07 02:00:52;;;;;;;7.83;4.70;;;;;;;12.59;100.00;100846.45;1692577;83;21062;-68
2022/10/07 02:03:33;;;;;;;7.67;4.25;;;;;;;12.63;100.00;100849.79;1723531;82;21159;-68
2022/10/07 02:06:29;;;;;;;8.63;5.30;;;;;;;12.68;100.00;100851.19;1738204;82;21665;-68
2022/10/07 02:08:56;;;;;;;7.65;4.90;;;;;;;12.72;100.00;100850.13;1715609;82;21079;-67
2022/10/07 02:11:30;;;;;;;7.62;4.55;;;;;;;12.76;100.00;100859.45;1722007;82;21062;-68
2022/10/07 02:14:18;;;;;;;7.80;5.05;;;;;;;12.78;100.00;100864.14;1716572;82;21669;-67
2022/10/07 02:17:09;;;;;;;8.90;5.72;;;;;;;12.82;100.00;100862.55;1720472;82;21054;-70
2022/10/07 02:19:42;;;;;;;6.28;4.95;;;;;;;12.87;100.00;100875.70;1726902;82;22334;-69
2022/10/07 02:22:10;;;;;;;8.53;4.92;;;;;;;12.83;100.00;100877.30;1725203;82;21070;-69
2022/10/07 02:24:37;;;;;;;7.35;4.80;;;;;;;12.82;100.00;100870.17;1722335;82;21154;-69
2022/10/07 02:27:10;;;;;;;12.30;5.35;;;;;;;12.82;100.00;100868.80;1728832;82;21937;-70
2022/10/07 02:29:39;;;;;;;9.98;5.12;;;;;;;12.85;100.00;100878.41;1741538;82;21106;-67
2022/10/07 02:32:10;;;;;;;8.50;6.20;;;;;;;12.88;100.00;100888.29;1718099;82;21562;-67
2022/10/07 02:34:40;;;;;;;10.43;5.10;;;;;;;12.87;100.00;100883.06;1719957;82;21867;-67
2022/10/07 02:37:18;;;;;;;7.55;5.15;;;;;;;12.89;100.00;100891.84;1716542;82;21562;-69
2022/10/07 02:39:45;;;;;;;8.35;5.97;;;;;;;12.92;100.00;100892.69;1719039;82;21582;-69
2022/10/07 02:42:40;;;;;;;8.68;5.75;;;;;;;12.91;100.00;100893.23;1721626;82;21074;-69
2022/10/07 02:45:18;;;;;;;9.20;5.53;;;;;;;12.93;100.00;100893.78;1716697;82;22034;-70
2022/10/07 02:47:52;;;;;;;7.75;5.15;;;;;;;12.97;100.00;100894.09;1724625;82;21083;-70
2022/10/07 02:50:22;;;;;;;10.60;5.45;;;;;;;12.95;100.00;100897.64;1721503;82;21617;-70
2022/10/07 02:52:50;;;;;;;12.10;5.83;;;;;;;12.95;100.00;100897.64;1736500;82;21042;-71
2022/10/07 02:55:20;;;;;;;7.33;5.37;;;;;;;12.96;100.00;100896.56;1733638;82;21019;-69
2022/10/07 02:57:49;;;;;;;11.30;5.58;;;;;;;12.97;100.00;100902.28;1698024;83;21926;-70
2022/10/07 03:00:16;;;;;;;8.45;5.40;;;;;;;12.95;100.00;100908.56;1689186;83;21023;-69
2022/10/07 03:02:58;;;;;;;9.03;5.00;;;;;;;12.88;100.00;100915.61;1717557;82;21066;-69
2022/10/07 03:05:26;;;;;;;9.27;5.30;;;;;;;12.83;100.00;100926.48;1720244;82;20988;-69
2022/10/07 03:07:59;;;;;;;6.87;5.15;;;;;;;12.77;100.00;100922.05;1696515;83;21807;-69
2022/10/07 03:10:27;;;;;;;10.55;5.67;;;;;;;12.73;100.00;100927.75;1716579;82;21602;-69
2022/10/07 03:12:55;;;;;;;8.10;5.25;;;;;;;12.65;100.00;100928.20;1742242;82;21093;-70
2022/10/07 03:15:22;;;;;;;12.30;5.78;;;;;;;12.59;100.00;100934.70;1724496;82;21538;-69
2022/10/07 03:17:50;;;;;;;6.92;4.67;;;;;;;12.57;100.00;100937.41;1719699;82;21562;-69
2022/10/07 03:20:17;;;;;;;9.08;5.30;;;;;;;12.54;100.00;100937.35;1692060;82;21067;-68
2022/10/07 03:22:43;;;;;;;8.35;4.95;;;;;;;12.46;100.00;100939.20;1707307;82;21074;-68
2022/10/07 03:25:11;;;;;;;12.05;4.97;;;;;;;12.41;100.00;100937.22;1722108;82;21071;-66
2022/10/07 03:27:38;;;;;;;10.55;4.95;;;;;;;12.42;100.00;100939.41;1722070;82;22177;-66
2022/10/07 03:30:08;;;;;;;10.10;4.85;;;;;;;12.41;100.00;100944.05;1719483;82;21059;-66
2022/10/07 03:32:37;;;;;;;8.38;5.15;;;;;;;12.33;100.00;100941.75;1721599;82;21861;-67
2022/10/07 03:35:06;;;;;;;9.60;4.62;;;;;;;12.32;100.00;100943.39;1715724;82;21594;-70
2022/10/07 03:37:33;;;;;;;9.95;5.00;;;;;;;12.32;100.00;100946.13;1703046;82;21078;-69
2022/10/07 03:39:59;;;;;;;6.22;4.08;;;;;;;12.27;100.00;100946.88;1727547;82;21044;-69
2022/10/07 03:42:26;;;;;;;9.83;5.08;;;;;;;12.22;100.00;100941.33;1737630;82;21560;-70
2022/10/07 03:44:52;;;;;;;;;;;;;;;12.23;100.00;100944.36;1718959;82;21146;-70
2022/10/07 03:47:20;;;;;;;15.00;7.17;;;;;;;12.19;100.00;100943.74;1722110;82;20184;-71
2022/10/07 03:49:47;;;;;;;13.43;8.48;;;;;;;12.08;100.00;100941.98;1741888;82;21594;-71
2022/10/07 03:52:13;;;;;;;;;;;;;;;12.03;100.00;100946.00;1727313;82;21078;-71
2022/10/07 03:54:40;;;;;;;15.88;10.60;;;;;;;12.01;100.00;100947.59;1745011;82;20127;-68
2022/10/07 03:57:48;;;;;;;15.23;10.88;;;;;;;11.94;100.00;100951.87;1727430;82;21055;-67
2022/10/07 03:59:36;;;;;;;14.60;9.83;;;;;;;11.94;100.00;100956.50;1710574;82;21054;-68
2022/10/07 04:02:06;;;;;;;18.85;13.95;;;;;;;11.90;100.00;100954.02;1701106;82;21734;-68
2022/10/07 04:04:32;;;;;;;14.45;12.10;;;;;;;11.87;100.00;100959.41;1728684;82;21380;-67
2022/10/07 04:06:59;;;;;;;11.20;9.70;;;;;;;11.79;100.00;100957.13;1708536;82;21051;-68
2022/10/07 04:09:25;;;;;;;13.03;9.00;;;;;;;11.77;100.00;100960.63;1721211;82;21051;-68
2022/10/07 04:11:52;;;;;;;10.65;7.15;;;;;;;11.76;100.00;100960.34;1718998;82;21046;-68
2022/10/07 04:14:19;;;;;;;12.65;6.87;;;;;;;11.74;100.00;100963.03;1726174;82;21094;-68
2022/10/07 04:16:46;;;;;;;10.30;7.22;;;;;;;11.70;100.00;100961.84;1716877;82;21597;-68
2022/10/07 04:19:13;;;;;;;11.93;7.25;;;;;;;11.66;100.00;100967.50;1725547;82;21138;-72
2022/10/07 04:21:43;;;;;;;12.20;6.67;;;;;;;11.61;100.00;100966.08;1715624;82;21105;-70
2022/10/07 04:24:10;;;;;;;7.22;4.42;;;;;;;11.57;100.00;100960.83;1722182;82;21212;-71
2022/10/07 04:26:36;;;;;;;;;;;;;;;11.57;100.00;100967.65;1728685;82;21063;-67
2022/10/07 04:29:02;;;;;;;7.97;4.20;;;;;;;11.56;100.00;100969.55;1707265;82;20125;-70
2022/10/07 04:31:29;;;;;;;7.25;3.83;;;;;;;11.49;100.00;100976.53;1721931;82;20995;-69
2022/10/07 04:33:58;;;;;;;8.00;3.70;;;;;;;11.43;100.00;100969.88;1713416;82;21078;-69
2022/10/07 04:36:27;;;;;;;7.62;3.67;;;;;;;11.40;100.00;100976.67;1739516;82;21608;-69
2022/10/07 04:38:55;;;;;;;7.37;3.55;;;;;;;11.41;100.00;100974.20;1717660;82;21110;-68
2022/10/07 04:41:23;;;;;;;9.53;3.37;;;;;;;11.41;100.00;100981.02;1723045;82;21089;-68
2022/10/07 04:43:51;;;;;;;8.43;3.60;;;;;;;11.43;100.00;100983.52;1720012;82;21082;-70
2022/10/07 04:46:18;;;;;;;9.28;3.95;;;;;;;11.42;100.00;100987.30;1728674;82;21038;-68
2022/10/07 04:48:49;;;;;;;6.90;3.55;;;;;;;11.40;100.00;100982.65;1722322;82;21082;-69
2022/10/07 04:51:17;;;;;;;6.97;3.00;;;;;;;11.37;100.00;100985.31;1714050;82;21056;-68
2022/10/07 04:53:51;;;;;;;4.80;2.90;;;;;;;11.38;100.00;100984.25;1717020;82;21079;-67
2022/10/07 04:56:18;;;;;;;8.73;3.55;;;;;;;11.41;100.00;100982.38;1710787;82;21594;-67
2022/10/07 04:58:44;;;;;;;;;;;;;;;11.44;100.00;100987.34;1709817;82;21071;-68
2022/10/07 05:01:11;;;;;;;7.47;3.52;;;;;;;11.42;100.00;100988.14;1713980;82;20153;-67
2022/10/07 05:03:39;;;;;;;7.95;3.70;;;;;;;11.31;100.00;100988.20;1709358;82;21095;-67
2022/10/07 05:06:08;;;;;;;10.20;3.42;;;;;;;11.31;100.00;100990.92;1710396;82;21329;-68
2022/10/07 05:08:37;;;;;;;7.42;3.55;;;;;;;11.37;100.00;100989.97;1729332;82;21625;-67
2022/10/07 05:11:05;;;;;;;7.22;3.35;;;;;;;11.42;100.00;100993.59;1714533;82;20992;-68
2022/10/07 05:13:33;;;;;;;8.40;3.92;;;;;;;11.47;100.00;100999.14;1720647;82;21052;-69
2022/10/07 05:16:02;;;;;;;6.72;3.27;;;;;;;11.47;100.00;100999.67;1707728;82;21051;-68
2022/10/07 05:18:30;;;;;;;5.92;3.17;;;;;;;11.52;100.00;100996.19;1721181;82;21147;-68
2022/10/07 05:21:04;;;;;;;10.80;7.30;;;;;;;11.56;100.00;100997.34;1715466;82;21047;-68
2022/10/07 05:23:30;;;;;;;10.38;4.00;;;;;;;11.62;100.00;101002.63;1719769;81;21110;-67
2022/10/07 05:26:00;;;;;;;11.48;5.85;;;;;;;11.65;100.00;101004.89;1714619;82;21016;-67
2022/10/07 05:28:28;;;;;;;12.10;5.00;;;;;;;11.66;100.00;101006.52;1710104;82;21590;-67
2022/10/07 05:31:04;;;;;;;5.90;3.02;;;;;;;11.75;100.00;101002.89;1730350;82;20984;-68
2022/10/07 05:33:31;;;;;;;10.68;3.65;;;;;;;11.82;100.00;101013.92;1712250;82;21017;-70
2022/10/07 05:35:58;;;;;;;9.55;3.72;;;;;;;11.85;100.00;101009.86;1723987;82;20965;-69
2022/10/07 05:38:26;;;;;;;9.88;3.72;;;;;;;11.98;100.00;101019.89;1734613;82;21035;-68
2022/10/07 05:41:01;;;;;;;6.47;3.60;;;;;;;12.20;100.00;101024.04;1737017;82;21050;-66
2022/10/07 05:43:31;;;;;;;10.28;4.47;;;;;;;12.41;100.00;101024.61;1710499;82;21094;-67
2022/10/07 05:46:06;;;;;;;7.75;3.47;;;;;;;12.57;100.00;101031.11;1708296;83;21027;-68
2022/10/07 05:48:35;;;;;;;10.18;4.40;;;;;;;12.76;100.00;101031.59;1707533;84;21067;-67
2022/10/07 05:51:02;;;;;;;9.05;3.58;;;;;;;12.94;100.00;101031.27;1716337;82;21091;-69
2022/10/07 05:53:29;;;;;;;9.68;4.37;;;;;;;13.19;100.00;101035.68;1715407;82;22092;-70
2022/10/07 05:55:55;;;;;;;8.75;3.70;;;;;;;13.37;100.00;101026.29;1717130;82;21036;-69
2022/10/07 05:58:23;;;;;;;9.80;3.75;;;;;;;13.58;100.00;101028.12;1739419;81;21387;-70
2022/10/07 06:00:54;;;;;;;9.13;3.22;;;;;;;13.88;100.00;101030.30;1721334;83;21011;-68
2022/10/07 06:03:21;;;;;;;10.70;3.90;;;;;;;14.09;100.00;101030.73;1730326;82;21157;-67
2022/10/07 06:05:49;;;;;;;9.05;3.55;;;;;;;14.17;100.00;101024.73;1717295;82;21027;-67
2022/10/07 06:08:20;;;;;;;7.83;3.10;;;;;;;14.30;100.00;101019.34;1723170;82;21569;-66
2022/10/07 06:13:32;;;;;;;7.30;2.70;;;;;;;14.54;100.00;101023.34;1734482;82;21212;-67
2022/10/07 06:16:07;;;;;;;6.95;2.95;;;;;;;14.59;100.00;101026.11;1726917;82;21026;-67
2022/10/07 06:18:37;;;;;;;6.95;3.05;;;;;;;14.68;100.00;101028.61;1734595;82;21356;-65
2022/10/07 06:21:05;;;;;;;7.22;3.33;;;;;;;14.73;100.00;101032.75;1728058;82;21074;-66
2022/10/07 06:23:32;;;;;;;7.78;3.02;;;;;;;14.80;100.00;101035.25;1735784;81;21055;-65
2022/10/07 06:26:03;;;;;;;7.85;3.15;;;;;;;14.87;100.00;101037.19;1725944;82;20991;-66
2022/10/07 06:28:32;;;;;;;5.28;2.85;;;;;;;15.01;100.00;101049.30;1721856;82;21074;-66
2022/10/07 06:31:04;;;;;;;8.85;3.40;;;;;;;15.26;100.00;101039.78;1722572;83;21023;-66
2022/10/07 06:33:31;;;;;;;7.37;2.90;;;;;;;15.49;100.00;101039.00;1727228;82;21094;-65
2022/10/07 06:36:04;;;;;;;8.85;2.77;;;;;;;15.75;100.00;101045.62;1727631;82;21014;-67
2022/10/07 06:38:30;;;;;;;9.13;3.17;;;;;;;15.84;100.00;101041.22;1737179;82;21058;-67
2022/10/07 06:41:01;;;;;;;9.08;2.90;;;;;;;15.80;100.00;101039.31;1729804;82;21514;-68
2022/10/07 06:43:30;;;;;;;9.03;2.50;;;;;;;15.81;100.00;101032.70;1737259;82;21676;-70
2022/10/07 06:46:01;;;;;;;8.55;2.70;;;;;;;15.80;100.00;101031.88;1725483;82;20994;-69
2022/10/07 06:48:31;;;;;;;9.73;3.30;;;;;;;15.75;100.00;101032.44;1737952;82;21565;-68
2022/10/07 06:50:58;;;;;;;7.47;2.60;;;;;;;15.75;100.00;101036.02;1733207;80;21987;-67
2022/10/07 06:53:26;;;;;;;8.15;3.17;;;;;;;15.79;100.00;101041.78;1730955;82;21117;-68
2022/10/07 06:55:56;;;;;;;9.55;3.40;;;;;;;15.87;100.00;101034.38;1726037;82;21023;-70
2022/10/07 06:58:22;;;;;;;8.75;2.90;;;;;;;15.93;100.00;101030.52;1731318;81;21086;-70
2022/10/07 07:00:51;;;;;;;8.25;2.80;;;;;;;16.10;100.00;101035.16;1733686;82;21031;-69
2022/10/07 07:03:19;;;;;;;9.15;2.42;;;;;;;16.26;100.00;101029.89;1758620;80;21083;-68
2022/10/07 07:05:46;;;;;;;9.58;2.50;;;;;;;16.33;100.00;101037.88;1735811;80;21038;-70
2022/10/07 07:08:16;;;;;;;12.78;3.10;;;;;;;16.39;100.00;101025.22;1733064;82;21675;-69
2022/10/07 07:10:43;;;;;;;10.65;3.25;;;;;;;16.44;100.00;101025.73;1734718;82;20979;-68
2022/10/07 07:13:10;;;;;;;8.05;2.45;;;;;;;16.47;100.00;101021.08;1719992;82;21130;-66
2022/10/07 07:15:37;;;;;;;10.40;2.20;;;;;;;16.43;100.00;101019.98;1725068;82;21599;-67
2022/10/07 07:18:05;;;;;;;8.03;2.62;;;;;;;16.40;100.00;101021.92;1730570;82;21062;-67
2022/10/07 07:20:36;;;;;;;7.83;2.40;;;;;;;16.43;100.00;101021.36;1704913;80;21011;-67
2022/10/07 07:23:07;;;;;;;9.98;2.27;;;;;;;16.44;100.00;101021.06;1722665;82;21054;-67
2022/10/07 07:25:35;;;;;;;9.55;2.50;;;;;;;16.51;100.00;101020.77;1729142;82;20991;-70
2022/10/07 07:28:02;;;;;;;10.48;2.45;;;;;;;16.54;100.00;101016.66;1730319;82;21062;-68
2022/10/07 07:30:29;;;;;;;7.65;2.00;;;;;;;16.62;100.00;101011.95;1731384;82;20962;-68
2022/10/07 07:32:58;;;;;;;7.65;1.87;;;;;;;16.76;100.00;101010.25;1720763;81;21592;-67
2022/10/07 07:35:26;;;;;;;7.03;1.80;;;;;;;16.74;100.00;101009.72;1720201;83;21102;-69
2022/10/07 07:37:53;;;;;;;8.23;2.35;;;;;;;16.63;100.00;101007.56;1732969;82;21066;-69
2022/10/07 07:40:19;;;;;;;9.08;2.05;;;;;;;16.60;100.00;101000.44;1750768;82;21563;-68
2022/10/07 07:42:47;;;;;;;7.50;1.90;;;;;;;16.66;100.00;101001.50;1716810;83;21085;-67
2022/10/07 07:45:14;;;;;;;7.97;2.10;;;;;;;16.82;100.00;101009.14;1720702;83;22001;-68
2022/10/07 07:47:41;;;;;;;6.33;2.12;;;;;;;16.99;100.00;101004.09;1720899;83;21062;-68
2022/10/07 07:50:07;;;;;;;8.33;1.90;;;;;;;17.13;100.00;101000.98;1720755;83;21074;-69
2022/10/07 07:52:34;;;;;;;7.95;1.57;;;;;;;17.24;100.00;101005.88;1722196;82;20995;-69
2022/10/07 07:55:02;;;;;;;6.78;1.77;;;;;;;17.39;100.00;101005.20;1719297;82;21081;-66
2022/10/07 07:57:29;;;;;;;5.40;1.77;;;;;;;17.47;100.00;100993.30;1719318;83;21371;-65
2022/10/07 07:59:58;;;;;;;6.70;2.12;;;;;;;17.48;100.00;101005.97;1718913;83;21059;-66
2022/10/07 08:02:26;;;;;;;9.05;2.05;;;;;;;17.49;100.00;100987.80;1720506;82;21586;-70
2022/10/07 08:04:52;;;;;;;5.85;1.90;;;;;;;17.53;100.00;100994.38;1750324;82;21066;-66
2022/10/07 08:07:19;;;;;;;9.20;2.00;;;;;;;17.58;100.00;100992.16;1750290;82;21098;-66
2022/10/07 08:09:46;;;;;;;7.70;1.90;;;;;;;17.61;100.00;100982.77;1750154;82;21054;-66
2022/10/07 08:12:14;;;;;;;9.05;2.02;;;;;;;17.66;100.00;100987.41;1722756;82;21510;-66
2022/10/07 08:14:42;;;;;;;6.83;2.10;;;;;;;17.83;100.00;100995.52;1725171;82;21102;-66
2022/10/07 08:17:08;;;;;;;6.22;2.00;;;;;;;17.91;100.00;100994.07;1723163;82;21445;-68
2022/10/07 08:19:35;;;;;;;6.15;2.00;;;;;;;18.03;100.00;100988.98;1700982;83;21038;-67
2022/10/07 08:22:05;;;;;;;9.53;2.40;;;;;;;17.98;100.00;100986.29;1732971;82;21027;-68
2022/10/07 08:24:32;;;;;;;7.15;2.15;;;;;;;17.93;100.00;100986.33;1722924;82;21059;-66
2022/10/07 08:27:00;;;;;;;7.00;1.80;;;;;;;18.00;100.00;100992.87;1723099;82;21011;-66
2022/10/07 08:29:29;;;;;;;6.12;2.22;;;;;;;18.10;100.00;100985.35;1750315;82;21629;-67
2022/10/07 08:31:56;;;;;;;5.58;1.90;;;;;;;18.20;100.00;100985.24;1721236;82;21015;-67
2022/10/07 08:34:22;;;;;;;6.28;1.95;;;;;;;18.29;100.00;100985.41;1720641;83;21133;-67
2022/10/07 08:36:50;;;;;;;9.20;1.80;;;;;;;18.34;100.00;100983.98;1720845;83;21086;-67
2022/10/07 08:39:17;;;;;;;5.83;1.90;;;;;;;18.33;100.00;100987.84;1720992;83;21238;-66
2022/10/07 08:42:31;;;;;;;8.80;1.80;;;;;;;18.44;100.00;100981.66;1734631;82;21055;-68
2022/10/07 08:44:58;;;;;;;6.70;1.82;;;;;;;18.63;100.00;100983.95;1741192;82;21119;-70
2022/10/07 08:47:30;;;;;;;7.60;1.77;;;;;;;18.69;100.00;100981.38;1670076;83;21569;-68
2022/10/07 08:50:05;;;;;;;10.58;2.00;;;;;;;18.69;100.00;100984.13;1720503;83;22309;-66
2022/10/07 08:52:55;;;;;;;6.67;1.70;;;;;;;18.69;100.00;100983.58;1724006;82;21571;-67
2022/10/07 08:55:47;;;;;;;8.45;2.10;;;;;;;18.67;100.00;100979.48;1721045;82;21058;-66
2022/10/07 08:58:48;;;;;;;7.42;1.82;;;;;;;18.69;100.00;100980.00;1715081;83;21095;-67
2022/10/07 09:01:38;;;;;;;4.30;1.60;;;;;;;18.84;100.00;100983.94;1709700;82;21070;-66
2022/10/07 09:04:36;;;;;;;7.83;2.05;;;;;;;18.95;100.00;100971.66;1719433;82;21140;-66
2022/10/07 09:07:24;;;;;;;8.53;1.62;;;;;;;19.07;100.00;100972.56;1707216;84;21019;-67
2022/10/07 09:09:55;;;;;;;5.20;1.50;;;;;;;19.13;100.00;100970.02;1707375;82;21071;-68
2022/10/07 09:12:37;;;;;;;9.08;2.05;;;;;;;19.10;100.00;100965.06;1687028;84;21094;-67
2022/10/07 09:15:05;;;;;;;10.82;2.77;;;;;;;19.09;100.00;100968.41;1710467;82;21072;-67
2022/10/07 09:17:39;;;;;;;7.95;1.98;;;;;;;19.15;100.00;100966.38;1722017;83;21124;-67
2022/10/07 09:20:15;;;;;;;7.85;2.20;;;;;;;19.24;100.00;100965.95;1721324;82;21111;-68
2022/10/07 09:22:42;;;;;;;7.83;1.90;;;;;;;19.29;100.00;100968.65;1736786;82;21019;-68
2022/10/07 09:25:21;;;;;;;7.55;2.25;;;;;;;19.25;100.00;100969.81;1736509;82;21071;-66
2022/10/07 09:27:50;;;;;;;6.03;1.80;;;;;;;19.28;100.00;100968.38;1736757;82;21102;-68
2022/10/07 09:30:18;;;;;;;6.42;1.82;;;;;;;19.15;100.00;100970.52;1724142;82;21043;-67
2022/10/07 09:32:47;;;;;;;11.93;2.40;;;;;;;19.15;100.00;100970.52;1711314;82;21087;-70
2022/10/07 09:35:21;;;;;;;6.35;1.67;;;;;;;19.12;100.00;100962.29;1731756;81;21510;-66
2022/10/07 09:38:08;;;;;;;7.50;1.85;;;;;;;19.07;100.00;100964.28;1725741;82;21028;-67
2022/10/07 09:43:30;;;;;;;22.48;6.00;;;;;;;19.10;100.00;100966.45;1722282;82;21155;-69
2022/10/07 09:45:58;;;;;;;6.65;2.05;;;;;;;19.27;100.00;100968.94;1718320;82;21106;-67
2022/10/07 09:48:32;;;;;;;10.32;2.62;;;;;;;19.47;100.00;100963.70;1725191;82;21074;-68
2022/10/07 09:51:18;;;;;;;5.90;2.00;;;;;;;19.46;100.00;100957.08;1737047;82;21547;-67
2022/10/07 09:53:57;;;;;;;7.58;2.70;;;;;;;19.38;100.00;100952.47;1732632;82;21942;-67
2022/10/07 09:56:39;;;;;;;7.95;2.98;;;;;;;19.23;100.00;100956.88;1710773;82;21476;-65
2022/10/07 09:59:23;;;;;;;7.55;2.58;;;;;;;18.98;100.00;100943.46;1712697;82;21071;-65
2022/10/07 10:02:01;;;;;;;7.42;2.25;;;;;;;18.87;100.00;100951.62;1746184;81;21008;-69
2022/10/07 10:04:35;;;;;;;7.35;2.45;;;;;;;18.70;100.00;100942.48;1696201;82;21573;-66
2022/10/07 10:07:21;;;;;;;12.37;5.62;;;;;;;18.55;100.00;100936.33;1714739;82;21024;-64
2022/10/07 10:09:58;;;;;;;15.32;10.32;;;;;;;18.38;100.00;100933.48;1708369;82;22046;-66
2022/10/07 10:12:25;;;;;;;13.38;8.70;;;;;;;18.18;100.00;100928.75;1720192;82;21046;-66
2022/10/07 10:14:55;;;;;;;8.68;3.00;;;;;;;18.06;100.00;100927.80;1717688;82;21642;-65
2022/10/07 10:17:33;;;;;;;6.70;2.20;;;;;;;18.00;100.00;100926.75;1707580;82;21000;-66
2022/10/07 10:20:42;;;;;;;6.75;2.27;;;;;;;17.92;100.00;100927.41;1728147;82;21135;-66
2022/10/07 10:23:22;;;;;;;6.85;1.92;;;;;;;17.77;100.00;100922.33;1732493;82;21012;-66
2022/10/07 10:26:29;;;;;;;5.00;2.33;;;;;;;17.67;100.00;100927.11;1710079;82;21329;-66
2022/10/07 10:29:28;;;;;;;5.05;2.15;;;;;;;17.64;100.00;100916.09;1714940;82;21119;-66
2022/10/07 10:32:33;;;;;;;12.05;2.67;;;;;;;17.67;100.00;100921.05;1726810;82;21086;-66
2022/10/07 10:35:19;;;;;;;6.45;2.60;;;;;;;17.64;100.00;100911.97;1708762;82;21083;-66
2022/10/07 10:38:19;;;;;;;6.17;2.70;;;;;;;17.64;100.00;100911.97;1711336;82;21021;-69
2022/10/07 10:41:09;;;;;;;5.97;1.80;;;;;;;17.66;100.00;100902.05;1726279;82;21032;-66
2022/10/07 10:44:04;;;;;;;6.83;2.20;;;;;;;17.63;100.00;100899.88;1713458;82;21305;-69
2022/10/07 10:46:59;;;;;;;5.72;1.72;;;;;;;17.57;100.00;100899.67;1716914;82;21031;-69
2022/10/07 10:49:56;;;;;;;10.53;4.37;;;;;;;17.50;100.00;100896.41;1703079;82;21055;-68
2022/10/07 10:52:52;;;;;;;6.90;2.22;;;;;;;17.51;100.00;100893.89;1711463;82;21051;-70
2022/10/07 10:55:36;;;;;;;6.75;2.10;;;;;;;17.55;100.00;100894.97;1738231;82;21035;-68
2022/10/07 10:58:14;;;;;;;6.22;2.12;;;;;;;17.64;100.00;100904.28;1714321;82;21016;-67
2022/10/07 11:01:16;;;;;;;6.12;2.15;;;;;;;17.67;100.00;100893.52;1716368;82;21114;-69
2022/10/07 11:04:15;;;;;;;7.58;2.17;;;;;;;17.66;100.00;100891.86;1643210;86;22437;-66
2022/10/07 11:06:47;;;;;;;7.45;3.00;;;;;;;17.63;100.00;100887.49;1655565;85;21062;-69
2022/10/07 11:09:22;;;;;;;4.12;1.80;;;;;;;17.61;100.00;100885.56;1706114;82;21106;-65
2022/10/07 11:13:45;;;;;;;9.30;2.42;;;;;;;17.60;100.00;100876.52;1778900;78;22955;-66
2022/10/07 11:16:17;;;;;;;6.85;2.45;;;;;;;17.50;100.00;100884.81;1760173;80;21628;-68
2022/10/07 11:19:00;;;;;;;12.55;2.58;;;;;;;17.54;100.00;100883.67;1755803;80;21097;-69
2022/10/07 11:21:49;;;;;;;7.20;2.02;;;;;;;17.63;100.00;100882.81;1758882;81;21065;-67
2022/10/07 11:24:27;;;;;;;8.38;2.20;;;;;;;17.75;100.00;100881.84;1758294;80;21105;-66
2022/10/07 11:27:17;;;;;;;12.50;2.45;;;;;;;17.85;100.00;100883.69;1751236;80;21628;-69
2022/10/07 11:29:56;;;;;;;9.05;2.40;;;;;;;17.91;100.00;100875.62;1740777;81;21074;-65
2022/10/07 11:32:37;;;;;;;10.18;2.12;;;;;;;17.98;100.00;100873.34;1770904;80;21065;-69
2022/10/07 11:35:28;;;;;;;5.55;2.30;;;;;;;18.02;100.00;100873.02;1753203;80;21615;-67
2022/10/07 11:38:17;;;;;;;6.67;2.05;;;;;;;18.02;100.00;100872.19;1752642;81;21141;-65
2022/10/07 11:40:58;;;;;;;4.80;2.00;;;;;;;17.93;100.00;100880.27;1757363;80;20967;-67
2022/10/07 11:43:52;;;;;;;11.20;2.50;;;;;;;17.83;100.00;100872.95;1760160;80;21097;-70
2022/10/07 11:46:27;;;;;;;9.10;2.17;;;;;;;17.74;100.00;100866.45;1760638;80;21172;-68
2022/10/07 11:49:20;;;;;;;6.85;2.40;;;;;;;17.75;100.00;100865.31;1757396;80;21090;-68
2022/10/07 11:52:01;;;;;;;5.90;2.58;;;;;;;17.67;100.00;100862.40;1773532;80;21572;-67